Time;durP1;ratioP1;P1;durP2;ratioP2;P2;SDS_P1;SDS_P2;PMS_P1;PMS_P2;Temp;Humidity;BMP_temperature;BMP_pressure;BME280_temperature;BME280_humidity;BME280_pressure;Samples;Min_cycle;Max_cycle;Signal;HPM_P1;HPM_P2
2023/07/24 00:00:35;;;;;;;21.07;19.97;;;;;;;;;;5080009;28;20449;-84
2023/07/24 00:03:05;;;;;;;21.70;20.60;;;;;;;;;;5079809;28;20482;-84
2023/07/24 00:05:32;;;;;;;22.27;21.17;;;;;;;;;;5080151;28;20397;-82
2023/07/24 00:07:59;;;;;;;21.87;20.73;;;;;;;;;;5079000;28;20753;-84
2023/07/24 00:10:26;;;;;;;21.40;20.40;;;;;;;;;;5078610;28;20454;-84
2023/07/24 00:12:53;;;;;;;22.20;21.10;;;;;;;;;;5079468;28;20443;-84
2023/07/24 00:15:20;;;;;;;21.23;20.13;;;;;;;;;;5078488;28;20843;-84
2023/07/24 00:17:47;;;;;;;21.13;20.13;;;;;;;;;;5080068;28;20450;-83
2023/07/24 00:20:16;;;;;;;21.73;20.63;;;;;;;;;;5078574;28;20428;-83
2023/07/24 00:22:43;;;;;;;22.43;21.37;;;;;;;;;;5079112;28;20504;-82
2023/07/24 00:25:10;;;;;;;22.20;21.03;;;;;;;;;;5079152;28;20789;-84
2023/07/24 00:27:37;;;;;;;21.93;20.83;;;;;;;;;;5079546;28;20442;-83
2023/07/24 00:30:04;;;;;;;21.70;20.60;;;;;;;;;;5078395;28;20453;-83
2023/07/24 00:32:31;;;;;;;21.63;20.50;;;;;;;;;;5078356;28;20440;-83
2023/07/24 00:34:58;;;;;;;22.30;21.10;;;;;;;;;;5079219;28;20799;-83
2023/07/24 00:37:27;;;;;;;23.47;22.27;;;;;;;;;;5079399;28;20424;-84
2023/07/24 00:39:54;;;;;;;22.30;21.20;;;;;;;;;;5078110;28;20454;-83
2023/07/24 00:42:21;;;;;;;23.07;21.90;;;;;;;;;;5078380;28;20460;-84
2023/07/24 00:44:48;;;;;;;20.90;19.90;;;;;;;;;;5079161;28;20420;-83
2023/07/24 00:47:15;;;;;;;22.97;21.67;;;;;;;;;;5078693;28;20425;-83
2023/07/24 00:49:42;;;;;;;22.00;20.90;;;;;;;;;;5078429;28;20519;-83
2023/07/24 00:52:10;;;;;;;23.60;22.40;;;;;;;;;;5078491;28;20492;-83
2023/07/24 00:54:38;;;;;;;23.33;22.13;;;;;;;;;;5079089;28;20421;-84
2023/07/24 00:57:07;;;;;;;22.80;21.67;;;;;;;;;;5079260;28;20442;-83
2023/07/24 00:59:34;;;;;;;23.50;22.17;;;;;;;;;;5077876;28;20957;-83
2023/07/24 01:02:01;;;;;;;23.20;22.00;;;;;;;;;;5078149;28;20471;-84
2023/07/24 01:04:28;;;;;;;23.03;21.73;;;;;;;;;;5078805;28;20457;-84
2023/07/24 01:06:56;;;;;;;23.40;22.20;;;;;;;;;;5078337;28;20428;-84
2023/07/24 01:09:23;;;;;;;22.53;21.33;;;;;;;;;;5077914;28;20536;-83
2023/07/24 01:11:55;;;;;;;23.40;22.10;;;;;;;;;;5078607;28;20455;-83
2023/07/24 01:14:23;;;;;;;23.90;22.70;;;;;;;;;;5078764;28;20412;-83
2023/07/24 01:16:51;;;;;;;23.43;22.13;;;;;;;;;;5078556;28;20912;-84
2023/07/24 01:19:23;;;;;;;23.40;22.10;;;;;;;;;;5078573;28;20457;-84
2023/07/24 01:22:00;;;;;;;23.20;21.97;;;;;;;;;;5078318;28;20464;-84
2023/07/24 01:24:31;;;;;;;22.00;20.70;;;;;;;;;;5079176;28;20439;-84
2023/07/24 01:27:00;;;;;;;22.43;21.30;;;;;;;;;;5078452;28;20420;-82
2023/07/24 01:29:27;;;;;;;22.63;21.43;;;;;;;;;;5078084;28;20474;-84
2023/07/24 01:31:54;;;;;;;23.03;21.83;;;;;;;;;;5077775;28;20494;-83
2023/07/24 01:34:21;;;;;;;23.20;21.90;;;;;;;;;;5078290;28;20841;-83
2023/07/24 01:36:50;;;;;;;23.10;21.90;;;;;;;;;;5078314;28;21087;-84
2023/07/24 01:39:18;;;;;;;24.03;22.73;;;;;;;;;;5077581;28;20478;-83
2023/07/24 01:41:45;;;;;;;23.97;22.67;;;;;;;;;;5078766;28;20511;-84
2023/07/24 01:44:14;;;;;;;23.90;22.67;;;;;;;;;;5078509;28;20781;-84
2023/07/24 01:46:41;;;;;;;23.90;22.50;;;;;;;;;;5078026;28;20461;-83
2023/07/24 01:49:08;;;;;;;22.30;21.10;;;;;;;;;;5077456;28;20428;-83
2023/07/24 01:51:35;;;;;;;22.97;21.87;;;;;;;;;;5078003;28;20444;-83
2023/07/24 01:54:02;;;;;;;22.50;21.30;;;;;;;;;;5078268;28;20495;-84
2023/07/24 01:56:29;;;;;;;22.87;21.67;;;;;;;;;;5077930;28;20460;-84
2023/07/24 01:58:56;;;;;;;23.53;22.23;;;;;;;;;;5077780;28;20447;-83
2023/07/24 02:01:24;;;;;;;23.87;22.53;;;;;;;;;;5077413;28;20444;-83
2023/07/24 02:03:51;;;;;;;24.50;22.70;;;;;;;;;;5078110;28;20605;-83
2023/07/24 02:06:18;;;;;;;23.93;22.53;;;;;;;;;;5077738;28;20420;-84
2023/07/24 02:08:48;;;;;;;20.63;19.63;;;;;;;;;;5077172;28;20432;-84
2023/07/24 02:11:15;;;;;;;23.00;21.73;;;;;;;;;;5076956;28;20442;-83
2023/07/24 02:13:42;;;;;;;21.93;20.83;;;;;;;;;;5077929;28;20442;-84
2023/07/24 02:16:09;;;;;;;22.80;21.50;;;;;;;;;;5077791;28;20515;-83
2023/07/24 02:18:38;;;;;;;21.97;20.87;;;;;;;;;;5077013;28;20458;-83
2023/07/24 02:21:05;;;;;;;22.33;21.17;;;;;;;;;;5078085;28;20482;-83
2023/07/24 02:23:32;;;;;;;22.63;21.37;;;;;;;;;;5077161;28;20473;-83
2023/07/24 02:25:59;;;;;;;22.23;20.93;;;;;;;;;;5077558;28;21254;-83
2023/07/24 02:28:26;;;;;;;22.00;20.80;;;;;;;;;;5076835;28;20485;-83
2023/07/24 02:30:55;;;;;;;22.67;21.37;;;;;;;;;;5077620;28;20478;-82
2023/07/24 02:33:22;;;;;;;22.13;20.80;;;;;;;;;;5076586;28;20789;-82
2023/07/24 02:35:52;;;;;;;21.77;20.47;;;;;;;;;;5077283;28;20439;-84
2023/07/24 02:38:19;;;;;;;21.23;20.13;;;;;;;;;;5078182;28;20441;-85
2023/07/24 02:40:46;;;;;;;23.07;21.90;;;;;;;;;;5080376;28;20465;-83
2023/07/24 02:43:15;;;;;;;22.97;21.67;;;;;;;;;;5080858;28;21024;-83
2023/07/24 02:45:42;;;;;;;23.60;22.03;;;;;;;;;;5080736;28;20802;-83
2023/07/24 02:48:09;;;;;;;23.57;22.07;;;;;;;;;;5080074;28;20854;-83
2023/07/24 02:50:36;;;;;;;23.43;22.23;;;;;;;;;;5080268;28;20463;-82
2023/07/24 02:53:04;;;;;;;22.73;21.33;;;;;;;;;;5080026;28;20446;-84
2023/07/24 02:55:32;;;;;;;24.13;22.83;;;;;;;;;;5080250;28;20937;-82
2023/07/24 02:57:59;;;;;;;24.63;23.13;;;;;;;;;;5080399;28;20788;-83
2023/07/24 03:00:26;;;;;;;24.47;23.07;;;;;;;;;;5080043;28;20428;-83
2023/07/24 03:02:53;;;;;;;22.13;21.00;;;;;;;;;;5080623;28;20469;-82
2023/07/24 03:05:20;;;;;;;24.63;23.20;;;;;;;;;;5080254;28;20523;-84
2023/07/24 03:07:47;;;;;;;24.63;23.33;;;;;;;;;;5080129;28;20449;-84
2023/07/24 03:10:16;;;;;;;24.47;23.03;;;;;;;;;;5080325;28;20432;-84
2023/07/24 03:12:43;;;;;;;24.43;22.73;;;;;;;;;;5080189;28;20469;-84
2023/07/24 03:15:10;;;;;;;24.23;22.73;;;;;;;;;;5080410;28;20427;-83
2023/07/24 03:17:37;;;;;;;24.50;23.10;;;;;;;;;;5080055;28;20978;-83
2023/07/24 03:20:11;;;;;;;24.33;22.73;;;;;;;;;;5079765;28;20428;-84
2023/07/24 03:22:38;;;;;;;24.00;22.70;;;;;;;;;;5080716;28;20492;-82
2023/07/24 03:25:05;;;;;;;25.50;24.10;;;;;;;;;;5080270;28;20424;-83
2023/07/24 03:27:33;;;;;;;24.80;23.40;;;;;;;;;;5080121;28;20427;-82
2023/07/24 03:30:00;;;;;;;25.27;23.77;;;;;;;;;;5080080;28;20424;-83
2023/07/24 03:32:28;;;;;;;25.70;24.10;;;;;;;;;;5079603;28;20461;-84
2023/07/24 03:34:55;;;;;;;24.10;22.70;;;;;;;;;;5079817;28;20424;-83
2023/07/24 03:37:22;;;;;;;25.00;23.70;;;;;;;;;;5079566;28;20489;-83
2023/07/24 03:39:49;;;;;;;25.60;23.90;;;;;;;;;;5079213;28;20820;-83
2023/07/24 03:42:26;;;;;;;25.40;24.00;;;;;;;;;;5079882;28;20468;-82
2023/07/24 03:44:54;;;;;;;23.83;22.63;;;;;;;;;;5079566;28;20404;-83
2023/07/24 03:47:21;;;;;;;24.07;22.53;;;;;;;;;;5079495;28;20459;-82
2023/07/24 03:49:48;;;;;;;24.70;23.20;;;;;;;;;;5078839;28;20445;-84
2023/07/24 03:52:15;;;;;;;24.63;22.90;;;;;;;;;;5079428;28;20437;-83
2023/07/24 03:54:42;;;;;;;25.07;23.77;;;;;;;;;;5079968;28;20560;-84
2023/07/24 03:57:10;;;;;;;24.73;23.13;;;;;;;;;;5079586;28;20508;-83
2023/07/24 03:59:37;;;;;;;24.07;22.67;;;;;;;;;;5079436;28;20916;-83
2023/07/24 04:02:06;;;;;;;24.07;22.77;;;;;;;;;;5079272;28;20469;-83
2023/07/24 04:04:33;;;;;;;24.33;22.83;;;;;;;;;;5079414;28;20439;-83
2023/07/24 04:07:01;;;;;;;23.90;22.40;;;;;;;;;;5079886;28;20481;-83
2023/07/24 04:09:28;;;;;;;24.20;22.77;;;;;;;;;;5079323;28;20424;-82
2023/07/24 04:11:55;;;;;;;23.97;22.67;;;;;;;;;;5079294;28;20455;-84
2023/07/24 04:14:22;;;;;;;24.20;22.70;;;;;;;;;;5079060;28;20427;-84
2023/07/24 04:16:49;;;;;;;25.37;23.77;;;;;;;;;;5078918;28;20474;-83
2023/07/24 04:19:17;;;;;;;24.77;23.30;;;;;;;;;;5079901;28;20519;-83
2023/07/24 04:21:44;;;;;;;25.23;23.57;;;;;;;;;;5080478;28;20448;-83
2023/07/24 04:24:11;;;;;;;23.70;22.20;;;;;;;;;;5079666;28;20898;-83
2023/07/24 04:26:39;;;;;;;24.03;22.63;;;;;;;;;;5080545;28;20424;-84
2023/07/24 04:29:06;;;;;;;23.70;22.40;;;;;;;;;;5079389;28;20474;-84
2023/07/24 04:31:34;;;;;;;23.00;21.67;;;;;;;;;;5080006;28;20441;-83
2023/07/24 04:34:01;;;;;;;22.40;21.20;;;;;;;;;;5079718;28;20481;-83
2023/07/24 04:36:29;;;;;;;22.97;21.67;;;;;;;;;;5080144;28;20424;-82
2023/07/24 04:38:56;;;;;;;24.17;22.77;;;;;;;;;;5079037;28;20449;-83
2023/07/24 04:41:23;;;;;;;23.00;21.60;;;;;;;;;;5078069;28;20451;-83
2023/07/24 04:43:50;;;;;;;21.90;20.70;;;;;;;;;;5078880;28;20812;-83
2023/07/24 04:46:18;;;;;;;22.10;20.80;;;;;;;;;;5078768;28;20453;-83
2023/07/24 04:48:45;;;;;;;22.47;21.37;;;;;;;;;;5078148;28;20446;-83
2023/07/24 04:51:12;;;;;;;22.80;21.50;;;;;;;;;;5078678;28;20501;-83
2023/07/24 04:53:40;;;;;;;22.50;21.20;;;;;;;;;;5077854;28;20445;-83
2023/07/24 04:56:07;;;;;;;22.33;21.13;;;;;;;;;;5078782;28;20454;-83
2023/07/24 04:58:34;;;;;;;21.27;19.97;;;;;;;;;;5077477;28;20904;-82
2023/07/24 05:01:03;;;;;;;21.87;20.57;;;;;;;;;;5084503;28;21031;-83
2023/07/24 05:03:30;;;;;;;21.97;20.67;;;;;;;;;;5099034;28;20881;-84
2023/07/24 05:05:58;;;;;;;20.87;19.70;;;;;;;;;;5099646;28;20915;-83
2023/07/24 05:08:25;;;;;;;21.90;20.80;;;;;;;;;;5098567;28;20456;-84
2023/07/24 05:10:57;;;;;;;22.37;21.13;;;;;;;;;;5098925;28;20530;-83
2023/07/24 05:13:24;;;;;;;21.47;20.37;;;;;;;;;;5099315;28;20429;-83
2023/07/24 05:15:51;;;;;;;21.57;20.30;;;;;;;;;;5099993;28;20449;-82
2023/07/24 05:18:18;;;;;;;23.00;20.97;;;;;;;;;;5098074;28;20423;-83
2023/07/24 05:20:47;;;;;;;21.63;20.40;;;;;;;;;;5097538;28;20981;-83
2023/07/24 05:23:14;;;;;;;21.87;20.67;;;;;;;;;;5098172;28;20451;-83
2023/07/24 05:25:41;;;;;;;22.07;20.83;;;;;;;;;;5097640;28;20473;-83
2023/07/24 05:28:09;;;;;;;21.87;20.67;;;;;;;;;;5097762;28;20431;-82
2023/07/24 05:30:36;;;;;;;22.07;20.80;;;;;;;;;;5097674;28;20463;-82
2023/07/24 05:33:04;;;;;;;21.80;20.60;;;;;;;;;;5098050;28;20460;-83
2023/07/24 05:35:31;;;;;;;21.73;20.63;;;;;;;;;;5097739;28;21002;-83
2023/07/24 05:37:58;;;;;;;21.47;20.07;;;;;;;;;;5097899;28;20430;-82
2023/07/24 05:40:25;;;;;;;22.00;20.83;;;;;;;;;;5096957;28;20469;-84
2023/07/24 05:42:52;;;;;;;21.47;20.37;;;;;;;;;;5097980;28;20463;-82
2023/07/24 05:45:20;;;;;;;19.43;18.47;;;;;;;;;;5097563;28;20464;-83
2023/07/24 05:47:47;;;;;;;20.63;19.33;;;;;;;;;;5097867;28;20481;-83
2023/07/24 05:50:14;;;;;;;23.50;22.10;;;;;;;;;;5097412;28;20469;-82
2023/07/24 05:52:41;;;;;;;21.47;20.13;;;;;;;;;;5097741;28;20558;-83
2023/07/24 05:55:09;;;;;;;21.87;20.20;;;;;;;;;;5097509;28;21010;-82
2023/07/24 05:57:36;;;;;;;21.97;20.73;;;;;;;;;;5097702;28;20449;-82
2023/07/24 06:00:05;;;;;;;21.47;20.20;;;;;;;;;;5097066;28;20439;-83
2023/07/24 06:02:33;;;;;;;21.90;20.60;;;;;;;;;;5096875;28;20472;-83
2023/07/24 06:05:00;;;;;;;22.13;20.93;;;;;;;;;;5096039;28;21030;-83
2023/07/24 06:07:27;;;;;;;22.73;21.33;;;;;;;;;;5097251;28;20419;-83
2023/07/24 06:09:54;;;;;;;21.53;20.43;;;;;;;;;;5096536;28;20506;-84
2023/07/24 06:12:21;;;;;;;24.83;23.10;;;;;;;;;;5097699;28;20488;-84
2023/07/24 06:14:48;;;;;;;25.80;24.10;;;;;;;;;;5101571;28;20833;-83
2023/07/24 06:17:15;;;;;;;26.93;25.10;;;;;;;;;;5100780;28;20449;-83
2023/07/24 06:19:44;;;;;;;27.33;25.63;;;;;;;;;;5100826;28;20426;-83
2023/07/24 06:22:11;;;;;;;26.47;24.60;;;;;;;;;;5100696;28;20462;-83
2023/07/24 06:24:38;;;;;;;26.20;24.50;;;;;;;;;;5100878;28;20476;-84
2023/07/24 06:27:07;;;;;;;26.13;24.27;;;;;;;;;;5101448;28;20454;-84
2023/07/24 06:29:34;;;;;;;27.00;25.30;;;;;;;;;;5100696;28;20789;-85
2023/07/24 06:32:02;;;;;;;27.83;26.03;;;;;;;;;;5102124;28;20443;-85
2023/07/24 06:34:30;;;;;;;28.90;27.03;;;;;;;;;;5101947;28;20449;-87
2023/07/24 06:36:58;;;;;;;29.60;27.50;;;;;;;;;;5102508;28;20431;-86
2023/07/24 06:39:25;;;;;;;29.40;27.37;;;;;;;;;;5102289;28;20502;-85
2023/07/24 06:41:52;;;;;;;28.60;26.93;;;;;;;;;;5102289;28;20480;-86
2023/07/24 06:44:20;;;;;;;28.87;26.97;;;;;;;;;;5102273;28;20488;-86
2023/07/24 06:46:47;;;;;;;29.53;27.33;;;;;;;;;;5102901;28;20488;-86
2023/07/24 06:49:14;;;;;;;28.90;27.03;;;;;;;;;;5101419;28;20452;-85
2023/07/24 06:51:41;;;;;;;28.70;26.90;;;;;;;;;;5101271;28;20543;-85
2023/07/24 06:54:09;;;;;;;26.73;24.87;;;;;;;;;;5101957;28;20451;-85
2023/07/24 06:56:36;;;;;;;29.20;27.50;;;;;;;;;;5102303;28;20431;-84
2023/07/24 06:59:03;;;;;;;28.43;26.80;;;;;;;;;;5101248;28;20419;-86
2023/07/24 07:01:30;;;;;;;27.30;25.80;;;;;;;;;;5102145;28;20492;-85
2023/07/24 07:03:57;;;;;;;27.83;26.10;;;;;;;;;;5102181;28;20959;-85
2023/07/24 07:06:24;;;;;;;27.10;25.50;;;;;;;;;;5102008;28;20441;-84
2023/07/24 07:08:51;;;;;;;25.60;24.07;;;;;;;;;;5103684;28;20440;-84
2023/07/24 07:11:20;;;;;;;25.53;23.73;;;;;;;;;;5103973;28;20470;-85
2023/07/24 07:13:47;;;;;;;25.13;23.83;;;;;;;;;;5101840;28;20420;-84
2023/07/24 07:16:14;;;;;;;26.20;24.70;;;;;;;;;;5101517;28;20430;-84
2023/07/24 07:18:41;;;;;;;26.17;24.70;;;;;;;;;;5099413;28;20449;-83
2023/07/24 07:21:08;;;;;;;25.37;23.97;;;;;;;;;;5099419;28;20466;-84
2023/07/24 07:23:37;;;;;;;26.30;24.80;;;;;;;;;;5099477;28;20489;-83
2023/07/24 07:26:04;;;;;;;28.50;26.57;;;;;;;;;;5100391;28;20426;-84
2023/07/24 07:28:32;;;;;;;28.37;26.47;;;;;;;;;;5100099;28;20427;-83
2023/07/24 07:30:59;;;;;;;29.97;27.63;;;;;;;;;;5100780;28;20469;-84
2023/07/24 07:33:27;;;;;;;30.57;28.77;;;;;;;;;;5100413;28;20432;-83
2023/07/24 07:35:54;;;;;;;29.37;27.57;;;;;;;;;;5098324;28;20806;-83
2023/07/24 07:38:22;;;;;;;30.87;28.43;;;;;;;;;;5099157;28;20438;-84
2023/07/24 07:40:49;;;;;;;30.80;28.50;;;;;;;;;;5099909;28;20448;-83
2023/07/24 07:43:16;;;;;;;30.87;28.97;;;;;;;;;;5099201;28;20437;-83
2023/07/24 07:45:44;;;;;;;28.10;26.50;;;;;;;;;;5098952;28;20440;-84
2023/07/24 07:48:11;;;;;;;29.13;27.43;;;;;;;;;;5099079;28;20423;-83
2023/07/24 07:50:38;;;;;;;29.63;27.83;;;;;;;;;;5097748;28;20554;-84
2023/07/24 07:53:06;;;;;;;29.40;27.43;;;;;;;;;;5099518;28;20408;-83
2023/07/24 07:55:33;;;;;;;30.33;28.33;;;;;;;;;;5098493;28;20789;-83
2023/07/24 07:58:00;;;;;;;29.17;27.37;;;;;;;;;;5099076;28;20503;-83
2023/07/24 08:00:27;;;;;;;31.60;29.20;;;;;;;;;;5098545;28;20488;-83
2023/07/24 08:02:56;;;;;;;30.37;28.27;;;;;;;;;;5098595;28;20448;-83
2023/07/24 08:05:23;;;;;;;29.47;27.27;;;;;;;;;;5097800;28;20568;-82
2023/07/24 08:07:50;;;;;;;27.67;25.57;;;;;;;;;;5098282;28;20437;-83
2023/07/24 08:10:17;;;;;;;27.43;25.40;;;;;;;;;;5099358;28;20427;-83
2023/07/24 08:12:44;;;;;;;25.40;23.90;;;;;;;;;;5096883;28;20488;-88
2023/07/24 08:15:11;;;;;;;25.63;23.93;;;;;;;;;;5099370;28;20453;-88
2023/07/24 08:17:38;;;;;;;26.53;24.53;;;;;;;;;;5100674;28;20449;-87
2023/07/24 08:20:08;;;;;;;23.13;21.83;;;;;;;;;;5100955;28;20449;-87
2023/07/24 08:22:35;;;;;;;21.90;20.70;;;;;;;;;;5097830;28;20980;-87
2023/07/24 08:25:02;;;;;;;23.30;21.90;;;;;;;;;;5080527;28;20459;-88
2023/07/24 08:27:29;;;;;;;23.77;22.37;;;;;;;;;;5081380;28;20430;-86
2023/07/24 08:29:56;;;;;;;23.57;21.97;;;;;;;;;;5079873;28;20454;-86
2023/07/24 08:32:23;;;;;;;24.17;22.47;;;;;;;;;;5080693;28;20502;-86
2023/07/24 08:34:50;;;;;;;24.53;23.03;;;;;;;;;;5080141;28;20428;-86
2023/07/24 08:37:19;;;;;;;24.30;22.87;;;;;;;;;;5080785;28;20889;-85
2023/07/24 08:39:46;;;;;;;23.77;22.40;;;;;;;;;;5080125;28;20417;-85
2023/07/24 08:42:14;;;;;;;23.50;22.20;;;;;;;;;;5079963;28;20463;-86
2023/07/24 08:44:41;;;;;;;23.47;22.17;;;;;;;;;;5081369;28;20555;-86
2023/07/24 08:47:11;;;;;;;24.10;22.73;;;;;;;;;;5081342;28;20433;-85
2023/07/24 08:49:38;;;;;;;25.10;23.50;;;;;;;;;;5080455;28;20458;-86
2023/07/24 08:52:07;;;;;;;25.20;23.63;;;;;;;;;;5078780;28;20441;-87
2023/07/24 08:54:36;;;;;;;25.43;23.80;;;;;;;;;;5078571;28;20417;-86
2023/07/24 08:57:04;;;;;;;25.93;24.23;;;;;;;;;;5077857;28;20417;-86
2023/07/24 08:59:31;;;;;;;24.53;23.13;;;;;;;;;;5076908;28;20441;-87
2023/07/24 09:01:58;;;;;;;23.87;22.47;;;;;;;;;;5076615;28;20463;-87
2023/07/24 09:04:25;;;;;;;24.50;23.00;;;;;;;;;;5077013;28;21058;-87
2023/07/24 09:06:52;;;;;;;25.00;23.50;;;;;;;;;;5081514;28;20826;-87
2023/07/24 09:09:20;;;;;;;23.77;22.13;;;;;;;;;;5095889;28;20435;-87
2023/07/24 09:11:49;;;;;;;24.73;23.00;;;;;;;;;;5099295;28;20534;-84
2023/07/24 09:14:21;;;;;;;24.53;22.63;;;;;;;;;;5100975;28;20467;-85
2023/07/24 09:16:48;;;;;;;23.47;21.83;;;;;;;;;;5098572;28;20507;-87
2023/07/24 09:19:19;;;;;;;24.80;23.10;;;;;;;;;;5096414;28;20411;-87
2023/07/24 09:21:46;;;;;;;23.57;22.07;;;;;;;;;;5097203;28;20447;-88
2023/07/24 09:24:14;;;;;;;23.33;21.97;;;;;;;;;;5096720;28;20462;-88
2023/07/24 09:26:53;;;;;;;23.77;22.20;;;;;;;;;;5097388;28;20532;-87
2023/07/24 09:29:20;;;;;;;23.00;21.70;;;;;;;;;;5096510;28;20415;-87
2023/07/24 09:31:48;;;;;;;23.40;21.90;;;;;;;;;;5096004;28;20951;-89
2023/07/24 09:34:15;;;;;;;24.07;22.57;;;;;;;;;;5095490;28;21244;-89
2023/07/24 09:36:43;;;;;;;24.33;22.73;;;;;;;;;;5095226;28;20996;-88
2023/07/24 09:39:11;;;;;;;24.83;23.33;;;;;;;;;;5094346;28;20434;-88
2023/07/24 09:41:38;;;;;;;23.97;22.47;;;;;;;;;;5096149;28;20576;-90
2023/07/24 09:44:06;;;;;;;24.30;22.70;;;;;;;;;;5095653;28;20453;-90
2023/07/24 09:46:34;;;;;;;24.73;23.23;;;;;;;;;;5095013;28;20801;-90
2023/07/24 09:49:01;;;;;;;23.27;21.70;;;;;;;;;;5094464;28;20467;-90
2023/07/24 09:51:30;;;;;;;24.77;23.27;;;;;;;;;;5095213;28;20525;-87
2023/07/24 09:54:00;;;;;;;22.73;21.33;;;;;;;;;;5095899;28;20489;-90
2023/07/24 09:56:27;;;;;;;23.40;22.00;;;;;;;;;;5096714;28;20757;-89
2023/07/24 09:58:55;;;;;;;23.10;21.70;;;;;;;;;;5095097;28;20451;-89
2023/07/24 10:01:24;;;;;;;24.03;22.43;;;;;;;;;;5095426;28;20467;-90
2023/07/24 10:03:51;;;;;;;47.00;24.57;;;;;;;;;;5096500;28;20463;-85
2023/07/24 10:06:18;;;;;;;30.57;28.87;;;;;;;;;;5098438;28;21008;-84
2023/07/24 10:08:46;;;;;;;25.50;23.70;;;;;;;;;;5098499;28;20457;-84
2023/07/24 10:11:14;;;;;;;27.40;25.60;;;;;;;;;;5098404;28;20485;-83
2023/07/24 10:13:41;;;;;;;27.90;25.90;;;;;;;;;;5096089;28;20433;-89
2023/07/24 10:16:08;;;;;;;26.87;25.20;;;;;;;;;;5096401;28;20411;-82
2023/07/24 10:18:43;;;;;;;27.77;26.03;;;;;;;;;;5095753;28;20472;-85
2023/07/24 10:21:10;;;;;;;27.97;26.17;;;;;;;;;;5093895;28;20457;-84
2023/07/24 10:23:38;;;;;;;27.83;26.03;;;;;;;;;;5093315;28;20461;-84
2023/07/24 10:26:05;;;;;;;26.23;24.47;;;;;;;;;;5094850;28;20580;-82
2023/07/24 10:28:34;;;;;;;26.80;25.00;;;;;;;;;;5093676;28;20919;-82
2023/07/24 10:31:02;;;;;;;26.93;25.23;;;;;;;;;;5095320;28;21264;-83
2023/07/24 10:33:31;;;;;;;26.33;24.63;;;;;;;;;;5095516;28;20419;-85
2023/07/24 10:36:09;;;;;;;26.23;24.63;;;;;;;;;;5095104;28;20502;-85
2023/07/24 10:38:37;;;;;;;26.10;24.40;;;;;;;;;;5094763;28;20445;-83
2023/07/24 10:41:04;;;;;;;25.67;24.03;;;;;;;;;;5094957;28;20472;-82
2023/07/24 10:43:42;;;;;;;25.93;24.33;;;;;;;;;;5093860;28;20434;-83
2023/07/24 10:46:09;;;;;;;24.87;23.20;;;;;;;;;;5095117;28;20537;-83
2023/07/24 10:48:36;;;;;;;24.93;23.43;;;;;;;;;;5093872;28;20995;-83
2023/07/24 10:51:09;;;;;;;27.50;25.73;;;;;;;;;;5095851;28;20473;-85
2023/07/24 10:53:36;;;;;;;28.57;26.80;;;;;;;;;;5096032;28;20430;-85
2023/07/24 10:56:03;;;;;;;28.30;26.53;;;;;;;;;;5096125;28;20431;-84
2023/07/24 10:58:31;;;;;;;26.20;24.50;;;;;;;;;;5094398;28;20431;-83
2023/07/24 11:00:58;;;;;;;26.43;24.83;;;;;;;;;;5097719;28;20491;-83
2023/07/24 11:03:26;;;;;;;25.60;24.10;;;;;;;;;;5099477;28;20463;-85
2023/07/24 11:05:53;;;;;;;25.70;24.20;;;;;;;;;;5098704;28;21021;-84
2023/07/24 11:08:22;;;;;;;23.60;22.00;;;;;;;;;;5099049;28;20476;-84
2023/07/24 11:10:50;;;;;;;24.60;23.10;;;;;;;;;;5098642;28;20466;-85
2023/07/24 11:13:17;;;;;;;23.27;21.87;;;;;;;;;;5097653;28;20500;-86
2023/07/24 11:15:44;;;;;;;23.60;22.10;;;;;;;;;;5099370;28;20452;-85
2023/07/24 11:18:12;;;;;;;22.60;20.97;;;;;;;;;;5099108;28;21258;-86
2023/07/24 11:20:39;;;;;;;23.60;22.30;;;;;;;;;;5098064;28;20449;-85
2023/07/24 11:23:06;;;;;;;23.00;21.70;;;;;;;;;;5097807;28;20963;-85
2023/07/24 11:25:35;;;;;;;23.50;21.80;;;;;;;;;;5099316;28;20499;-84
2023/07/24 11:28:04;;;;;;;24.47;22.97;;;;;;;;;;5098866;28;20431;-85
2023/07/24 11:30:31;;;;;;;23.90;22.50;;;;;;;;;;5097904;28;20444;-84
2023/07/24 11:33:00;;;;;;;23.67;22.17;;;;;;;;;;5098834;28;20503;-85
2023/07/24 11:35:28;;;;;;;23.67;22.17;;;;;;;;;;5098250;28;20435;-83
2023/07/24 11:37:55;;;;;;;25.17;23.57;;;;;;;;;;5099090;28;20435;-85
2023/07/24 11:40:22;;;;;;;22.63;21.33;;;;;;;;;;5097972;28;20460;-85
2023/07/24 11:42:51;;;;;;;23.20;21.57;;;;;;;;;;5098612;28;20427;-86
2023/07/24 11:45:18;;;;;;;23.30;21.80;;;;;;;;;;5098830;28;20484;-85
2023/07/24 11:47:45;;;;;;;24.63;23.23;;;;;;;;;;5099395;28;20419;-84
2023/07/24 11:50:13;;;;;;;23.33;21.80;;;;;;;;;;5099728;28;20423;-85
2023/07/24 11:52:40;;;;;;;23.60;22.20;;;;;;;;;;5100834;28;20469;-86
2023/07/24 11:55:08;;;;;;;23.77;22.27;;;;;;;;;;5100673;28;20556;-85
2023/07/24 11:57:35;;;;;;;23.47;22.07;;;;;;;;;;5101210;28;20455;-86
2023/07/24 12:00:04;;;;;;;22.90;21.40;;;;;;;;;;5099805;28;20422;-85
2023/07/24 12:02:33;;;;;;;22.17;20.77;;;;;;;;;;5098231;28;20462;-88
2023/07/24 12:05:00;;;;;;;23.53;21.90;;;;;;;;;;5096715;28;20468;-88
2023/07/24 12:07:31;;;;;;;23.87;22.30;;;;;;;;;;5096694;28;20427;-88
2023/07/24 12:09:58;;;;;;;23.90;22.50;;;;;;;;;;5095370;28;20450;-88
2023/07/24 12:12:26;;;;;;;24.30;22.90;;;;;;;;;;5095189;28;20518;-89
2023/07/24 12:14:53;;;;;;;24.60;23.10;;;;;;;;;;5095661;28;20832;-88
2023/07/24 12:17:21;;;;;;;23.70;22.20;;;;;;;;;;5095744;28;20494;-89
2023/07/24 12:19:49;;;;;;;23.93;22.53;;;;;;;;;;5095541;28;20433;-89
2023/07/24 12:22:16;;;;;;;23.33;21.93;;;;;;;;;;5096008;28;20469;-88
2023/07/24 12:24:43;;;;;;;22.40;21.00;;;;;;;;;;5095746;28;20449;-88
2023/07/24 12:27:10;;;;;;;23.77;22.30;;;;;;;;;;5095681;28;20487;-89
2023/07/24 12:29:37;;;;;;;22.83;21.40;;;;;;;;;;5095138;28;20789;-88
2023/07/24 12:32:04;;;;;;;22.37;21.10;;;;;;;;;;5094715;28;20967;-88
2023/07/24 12:34:33;;;;;;;23.63;22.20;;;;;;;;;;5095231;28;20435;-88
2023/07/24 12:37:00;;;;;;;22.33;21.03;;;;;;;;;;5095335;28;20441;-88
2023/07/24 12:39:27;;;;;;;23.40;22.00;;;;;;;;;;5095253;28;20465;-88
2023/07/24 12:41:54;;;;;;;23.07;21.70;;;;;;;;;;5095919;28;20473;-88
2023/07/24 12:44:21;;;;;;;22.80;21.30;;;;;;;;;;5088767;28;20812;-86
2023/07/24 12:46:48;;;;;;;25.47;23.40;;;;;;;;;;5078260;28;20493;-88
2023/07/24 12:49:15;;;;;;;41.97;38.23;;;;;;;;;;5075066;28;20446;-89
2023/07/24 12:51:44;;;;;;;64.30;59.70;;;;;;;;;;5075359;28;20484;-88
2023/07/24 12:54:11;;;;;;;69.33;64.70;;;;;;;;;;5076822;28;20935;-88
2023/07/24 12:56:38;;;;;;;70.87;66.17;;;;;;;;;;5075881;28;20426;-89
2023/07/24 12:59:05;;;;;;;62.30;58.70;;;;;;;;;;5074466;28;20438;-90
2023/07/24 13:01:32;;;;;;;57.40;54.00;;;;;;;;;;5074221;28;20458;-89
2023/07/24 13:03:59;;;;;;;59.33;55.47;;;;;;;;;;5074704;28;20457;-89
2023/07/24 13:06:26;;;;;;;53.80;50.70;;;;;;;;;;5074182;28;20525;-89
2023/07/24 13:08:55;;;;;;;58.10;54.20;;;;;;;;;;5074230;28;20450;-89
2023/07/24 13:11:22;;;;;;;59.47;55.87;;;;;;;;;;5074108;28;20452;-90
2023/07/24 13:13:50;;;;;;;59.17;55.77;;;;;;;;;;5074590;28;20420;-89
2023/07/24 13:16:17;;;;;;;72.30;58.97;;;;;;;;;;5074689;28;20477;-89
2023/07/24 13:18:44;;;;;;;62.57;58.67;;;;;;;;;;5073588;28;20428;-90
2023/07/24 13:21:11;;;;;;;61.23;57.53;;;;;;;;;;5073993;28;20453;-89
2023/07/24 13:23:38;;;;;;;65.10;60.87;;;;;;;;;;5073568;28;20440;-90
2023/07/24 13:26:08;;;;;;;65.73;61.40;;;;;;;;;;5074300;28;20543;-89
2023/07/24 13:28:35;;;;;;;62.70;58.73;;;;;;;;;;5073562;28;20454;-90
2023/07/24 13:31:12;;;;;;;66.27;61.97;;;;;;;;;;5073310;28;20472;-89
2023/07/24 13:33:39;;;;;;;56.43;53.10;;;;;;;;;;5073055;28;20508;-90
2023/07/24 13:36:07;;;;;;;61.20;57.30;;;;;;;;;;5073519;28;20495;-89
2023/07/24 13:38:34;;;;;;;60.83;56.73;;;;;;;;;;5073619;28;20461;-89
2023/07/24 13:41:01;;;;;;;51.57;48.60;;;;;;;;;;5073974;28;20457;-89
2023/07/24 13:43:29;;;;;;;57.20;53.80;;;;;;;;;;5074126;28;20424;-89
2023/07/24 13:45:57;;;;;;;57.30;53.37;;;;;;;;;;5074561;28;20482;-89
2023/07/24 13:48:24;;;;;;;55.87;51.77;;;;;;;;;;5073659;28;20857;-88
2023/07/24 13:50:51;;;;;;;52.20;49.07;;;;;;;;;;5074058;28;20452;-88
2023/07/24 13:53:18;;;;;;;57.53;53.93;;;;;;;;;;5080453;28;20424;-91
2023/07/24 13:55:45;;;;;;;53.63;50.43;;;;;;;;;;5093482;28;20441;-92
2023/07/24 13:58:12;;;;;;;50.17;47.17;;;;;;;;;;5085460;28;20813;-93
2023/07/24 14:00:41;;;;;;;52.47;49.40;;;;;;;;;;5095320;28;20427;-92
2023/07/24 14:03:08;;;;;;;49.47;46.67;;;;;;;;;;5095440;28;20430;-91
2023/07/24 14:05:36;;;;;;;49.90;47.10;;;;;;;;;;5095822;28;20485;-92
2023/07/24 14:08:03;;;;;;;47.03;44.33;;;;;;;;;;5095412;28;20800;-92
2023/07/24 14:10:30;;;;;;;50.37;47.53;;;;;;;;;;5093210;28;20451;-91
2023/07/24 14:12:57;;;;;;;51.30;48.30;;;;;;;;;;5096492;28;20873;-87
2023/07/24 14:15:24;;;;;;;52.37;48.50;;;;;;;;;;5096850;28;20465;-88
2023/07/24 14:17:53;;;;;;;49.93;47.13;;;;;;;;;;5097563;28;20448;-86